Time;durP1;ratioP1;P1;durP2;ratioP2;P2;SDS_P1;SDS_P2;PMS_P1;PMS_P2;Temp;Humidity;BMP_temperature;BMP_pressure;BME280_temperature;BME280_humidity;BME280_pressure;Samples;Min_cycle;Max_cycle;Signal;HPM_P1;HPM_P2
2022/02/13 00:01:22;;;;;;;9.00;4.65;;;;;;;0.41;89.21;101860.56;5050377;28;20452;-46
2022/02/13 00:03:51;;;;;;;10.65;5.03;;;;;;;0.40;89.23;101858.84;5048768;28;20107;-46
2022/02/13 00:06:19;;;;;;;12.77;5.07;;;;;;;0.35;89.41;101860.63;5052530;28;20124;-46
2022/02/13 00:08:47;;;;;;;12.88;4.70;;;;;;;0.35;89.49;101855.44;5052694;28;20045;-48
2022/02/13 00:11:17;;;;;;;10.20;5.07;;;;;;;0.34;89.39;101849.38;5052893;28;20052;-45
2022/02/13 00:13:46;;;;;;;11.65;4.68;;;;;;;0.34;89.44;101841.63;5052827;28;20053;-47
2022/02/13 00:16:14;;;;;;;11.60;5.13;;;;;;;0.31;89.17;101850.28;5052452;28;20111;-45
2022/02/13 00:18:45;;;;;;;13.48;5.25;;;;;;;0.27;89.59;101847.72;5052879;28;20099;-46
2022/02/13 00:21:33;;;;;;;11.27;4.93;;;;;;;0.24;89.65;101842.56;5052533;28;20476;-43
2022/02/13 00:24:01;;;;;;;9.65;5.22;;;;;;;0.26;90.10;101841.69;5052702;28;20128;-44
2022/02/13 00:26:29;;;;;;;11.02;5.55;;;;;;;0.16;90.06;101846.06;5052397;28;20047;-44
2022/02/13 00:28:57;;;;;;;12.48;4.80;;;;;;;0.12;90.52;101843.47;5052509;28;20045;-44
2022/02/13 00:31:25;;;;;;;8.75;4.70;;;;;;;0.06;90.83;101848.72;5052561;28;20045;-44
2022/02/13 00:33:54;;;;;;;14.20;4.82;;;;;;;0.01;91.14;101843.53;5051868;28;20401;-45
2022/02/13 00:36:23;;;;;;;11.52;5.00;;;;;;;-0.09;91.75;101837.56;5051591;28;20044;-47
2022/02/13 00:38:51;;;;;;;11.13;5.10;;;;;;;-0.09;91.25;101837.56;5052147;28;20045;-47
2022/02/13 00:41:19;;;;;;;14.18;5.15;;;;;;;-0.15;91.30;101837.59;5052490;28;20048;-46
2022/02/13 00:43:47;;;;;;;13.25;5.55;;;;;;;-0.19;91.58;101828.13;5052334;28;20103;-44
2022/02/13 00:46:15;;;;;;;12.18;5.60;;;;;;;-0.17;92.10;101829.81;5050859;28;20128;-45
2022/02/13 00:48:43;;;;;;;11.57;5.18;;;;;;;-0.20;92.00;101832.44;5052128;28;20045;-47
2022/02/13 00:51:13;;;;;;;13.15;4.88;;;;;;;-0.23;92.04;101829.88;5052193;28;20048;-47
2022/02/13 00:53:41;;;;;;;12.32;5.10;;;;;;;-0.29;91.94;101823.84;5052051;28;20113;-46
2022/02/13 00:56:09;;;;;;;10.80;5.03;;;;;;;-0.30;92.26;101825.59;5052046;28;20040;-48
2022/02/13 00:58:37;;;;;;;14.27;5.10;;;;;;;-0.38;92.97;101820.44;5051831;28;20052;-44
2022/02/13 01:01:06;;;;;;;12.80;5.70;;;;;;;-0.35;93.14;101822.16;5052051;28;20073;-47
2022/02/13 01:03:35;;;;;;;11.25;5.68;;;;;;;-0.41;93.00;101812.72;5051852;28;20056;-55
2022/02/13 01:06:04;;;;;;;15.40;5.43;;;;;;;-0.47;93.37;101812.72;5051862;28;20087;-56
2022/02/13 01:08:33;;;;;;;10.95;4.65;;;;;;;-0.54;93.71;101813.63;5050779;28;20561;-52
2022/02/13 01:11:02;;;;;;;11.75;5.65;;;;;;;-0.55;93.33;101810.16;5052076;28;20549;-53
2022/02/13 01:13:30;;;;;;;14.98;5.53;;;;;;;-0.60;94.14;101814.50;5051807;28;20072;-53
2022/02/13 01:15:59;;;;;;;9.07;4.97;;;;;;;-0.67;94.92;101810.19;5051807;28;20520;-55
2022/02/13 01:18:28;;;;;;;13.38;5.65;;;;;;;-0.75;95.04;101810.25;5051903;28;20119;-55
2022/02/13 01:20:57;;;;;;;11.65;5.13;;;;;;;-0.78;95.57;101797.31;5051699;28;20098;-56
2022/02/13 01:23:25;;;;;;;11.38;5.07;;;;;;;-0.79;96.41;101790.44;5051770;28;20041;-53
2022/02/13 01:25:54;;;;;;;11.50;6.07;;;;;;;-0.81;96.65;101797.31;5050255;28;20076;-55
2022/02/13 01:28:22;;;;;;;15.20;5.20;;;;;;;-0.74;96.51;101782.66;5051470;28;20041;-51
2022/02/13 01:30:50;;;;;;;13.60;5.65;;;;;;;-0.77;96.99;101777.53;5051881;28;20377;-55
2022/02/13 01:33:18;;;;;;;14.77;5.55;;;;;;;-0.76;96.90;101777.50;5051533;28;20139;-51
2022/02/13 01:35:46;;;;;;;9.50;4.65;;;;;;;-0.64;96.77;101770.56;5051076;28;20092;-53
2022/02/13 01:38:15;;;;;;;13.38;5.45;;;;;;;-0.71;96.96;101767.16;5051899;28;20144;-51
2022/02/13 01:40:43;;;;;;;12.68;5.47;;;;;;;-0.73;97.11;101755.97;5050232;28;20114;-54
2022/02/13 01:43:12;;;;;;;12.60;5.70;;;;;;;-0.72;97.20;101752.53;5051502;28;20056;-55
2022/02/13 01:45:40;;;;;;;11.23;5.78;;;;;;;-0.74;97.88;101747.34;5054307;28;20045;-55
2022/02/13 01:48:08;;;;;;;13.25;5.35;;;;;;;-0.68;97.21;101741.31;5055190;28;20103;-56
2022/02/13 01:50:37;;;;;;;14.57;5.45;;;;;;;-0.68;97.10;101746.50;5055232;28;20060;-56
2022/02/13 01:53:06;;;;;;;10.77;5.57;;;;;;;-0.71;97.30;101733.56;5054976;28;20049;-56
2022/02/13 01:55:34;;;;;;;10.48;5.65;;;;;;;-0.75;97.92;101734.44;5054800;28;20075;-55
2022/02/13 01:58:03;;;;;;;12.13;5.65;;;;;;;-0.75;97.80;101727.56;5055145;28;20100;-55
2022/02/13 02:00:32;;;;;;;17.67;5.88;;;;;;;-0.77;98.31;101733.59;5053911;28;20068;-54
2022/02/13 02:03:01;;;;;;;13.18;6.13;;;;;;;-0.81;98.51;101731.91;5055208;28;20492;-54
2022/02/13 02:05:30;;;;;;;16.33;6.78;;;;;;;-0.83;98.52;101721.56;5055168;28;20049;-44
2022/02/13 02:07:58;;;;;;;13.48;5.78;;;;;;;-0.78;98.44;101718.97;5055135;28;20488;-45
2022/02/13 02:10:26;;;;;;;13.35;5.82;;;;;;;-0.78;98.76;101709.47;5055111;28;20159;-53
2022/02/13 02:12:54;;;;;;;15.75;6.57;;;;;;;-0.81;99.17;101709.50;5055007;28;20049;-48
2022/02/13 02:15:22;;;;;;;16.75;6.22;;;;;;;-0.83;99.29;101698.31;5053628;28;20069;-47
2022/02/13 02:17:52;;;;;;;14.73;6.93;;;;;;;-0.83;99.60;101695.75;5054765;28;20044;-54
2022/02/13 02:20:20;;;;;;;18.20;7.28;;;;;;;-0.86;100.00;101690.56;5054679;28;20060;-55
2022/02/13 02:22:49;;;;;;;17.30;6.43;;;;;;;-0.94;100.00;101675.13;5054414;28;20075;-52
2022/02/13 02:25:19;;;;;;;17.75;7.50;;;;;;;-0.91;100.00;101672.50;5054843;28;20561;-45
2022/02/13 02:27:47;;;;;;;15.80;7.22;;;;;;;-0.92;100.00;101675.97;5054869;28;20045;-46
2022/02/13 02:30:16;;;;;;;13.88;6.88;;;;;;;-0.91;100.00;101674.25;5054633;28;20419;-44
2022/02/13 02:32:44;;;;;;;13.95;6.60;;;;;;;-0.92;100.00;101669.94;5054848;28;20434;-48
2022/02/13 02:35:12;;;;;;;14.73;6.38;;;;;;;-0.93;100.00;101663.91;5054628;28;20049;-43
2022/02/13 02:37:40;;;;;;;12.88;6.90;;;;;;;-0.92;100.00;101657.03;5054536;28;20392;-45
2022/02/13 02:40:09;;;;;;;17.25;6.07;;;;;;;-0.95;100.00;101657.91;5054311;28;20053;-43
2022/02/13 02:42:39;;;;;;;16.55;6.20;;;;;;;-0.95;100.00;101663.06;5054549;28;20074;-44
2022/02/13 02:45:13;;;;;;;11.98;5.40;;;;;;;-0.88;99.96;101651.84;5054474;28;20045;-44
2022/02/13 02:47:42;;;;;;;14.98;6.65;;;;;;;-0.92;100.00;101660.47;5054223;28;20052;-43
2022/02/13 02:50:12;;;;;;;13.25;5.40;;;;;;;-0.95;99.86;101650.16;5054209;28;20041;-47
2022/02/13 02:52:40;;;;;;;13.05;5.70;;;;;;;-0.94;100.00;101640.66;5054496;28;20547;-46
2022/02/13 02:55:09;;;;;;;14.32;5.88;;;;;;;-0.90;99.65;101640.66;5054306;28;20053;-46
2022/02/13 02:57:39;;;;;;;13.25;6.05;;;;;;;-0.88;99.65;101627.75;5053123;28;20041;-48
2022/02/13 03:00:08;;;;;;;13.07;5.78;;;;;;;-0.84;99.44;101626.00;5054210;28;20384;-45
2022/02/13 03:02:36;;;;;;;12.75;5.63;;;;;;;-0.77;98.91;101609.59;5054167;28;20099;-43
2022/02/13 03:05:05;;;;;;;14.65;5.68;;;;;;;-0.72;98.54;101602.69;5053992;28;20053;-43
2022/02/13 03:07:33;;;;;;;13.25;5.63;;;;;;;-0.73;98.55;101598.38;5053940;28;20045;-44
2022/02/13 03:10:01;;;;;;;12.20;5.50;;;;;;;-0.73;98.36;101596.66;5053766;28;20049;-45
2022/02/13 03:12:29;;;;;;;13.55;5.32;;;;;;;-0.75;98.43;101597.50;5051752;28;20048;-45
2022/02/13 03:15:00;;;;;;;15.73;5.82;;;;;;;-0.74;98.44;101596.66;5049891;28;20076;-44
2022/02/13 03:17:28;;;;;;;9.93;5.05;;;;;;;-0.75;98.26;101590.66;5052401;28;20086;-55
2022/02/13 03:19:56;;;;;;;13.25;5.50;;;;;;;-0.75;98.28;101598.41;5053150;28;20049;-47
2022/02/13 03:22:25;;;;;;;14.10;5.65;;;;;;;-0.76;98.33;101586.34;5053379;28;20130;-47
2022/02/13 03:24:58;;;;;;;12.82;5.47;;;;;;;-0.72;98.32;101571.69;5050936;28;20053;-45
2022/02/13 03:27:27;;;;;;;11.90;5.70;;;;;;;-0.73;98.13;101581.16;5049668;28;20127;-46
2022/02/13 03:29:55;;;;;;;10.07;5.45;;;;;;;-0.75;98.31;101582.91;5052495;28;21003;-56
2022/02/13 03:32:24;;;;;;;12.52;5.15;;;;;;;-0.75;98.21;101575.16;5052774;28;20044;-53
2022/02/13 03:34:52;;;;;;;12.82;4.70;;;;;;;-0.72;98.05;101574.28;5049678;28;20051;-53
2022/02/13 03:37:20;;;;;;;12.77;5.45;;;;;;;-0.75;98.17;101571.69;5051232;28;20381;-54
2022/02/13 03:39:48;;;;;;;12.63;5.57;;;;;;;-0.72;97.70;101561.34;5053662;28;20373;-53
2022/02/13 03:42:17;;;;;;;12.20;5.25;;;;;;;-0.72;97.53;101563.94;5049467;28;20098;-56
2022/02/13 03:44:45;;;;;;;11.20;5.35;;;;;;;-0.74;97.37;101561.34;5049677;28;20114;-53
2022/02/13 03:47:13;;;;;;;11.95;5.32;;;;;;;-0.74;97.45;101555.31;5052787;28;20049;-52
2022/02/13 03:49:43;;;;;;;10.82;4.95;;;;;;;-0.68;97.28;101556.13;5052081;28;20053;-55
2022/02/13 03:52:11;;;;;;;12.50;5.35;;;;;;;-0.65;96.91;101552.69;5049338;28;20044;-55
2022/02/13 03:54:39;;;;;;;11.85;4.85;;;;;;;-0.62;96.96;101555.22;5051170;28;20071;-55
2022/02/13 03:57:07;;;;;;;12.63;5.25;;;;;;;-0.64;97.06;101559.56;5053196;28;20055;-55
2022/02/13 03:59:35;;;;;;;10.45;5.10;;;;;;;-0.62;96.99;101567.31;5053064;28;20073;-55
2022/02/13 04:02:03;;;;;;;13.43;4.82;;;;;;;-0.51;96.55;101558.59;5053039;28;20052;-55
2022/02/13 04:04:31;;;;;;;12.13;4.90;;;;;;;-0.47;96.14;101553.41;5052779;28;20507;-54
2022/02/13 04:07:01;;;;;;;11.68;5.07;;;;;;;-0.41;95.80;101546.47;5053055;28;20132;-55
2022/02/13 04:09:29;;;;;;;12.02;4.85;;;;;;;-0.39;95.45;101542.13;5052859;28;20103;-55
2022/02/13 04:11:57;;;;;;;10.43;4.80;;;;;;;-0.34;94.99;101539.53;5052770;28;20041;-54
2022/02/13 04:14:25;;;;;;;9.85;4.28;;;;;;;-0.34;95.32;101536.94;5052462;28;20080;-56
2022/02/13 04:16:53;;;;;;;11.65;4.95;;;;;;;-0.29;95.03;101531.72;5052575;28;20076;-55
2022/02/13 04:19:21;;;;;;;9.82;4.25;;;;;;;-0.25;94.70;101538.56;5052571;28;20095;-53
2022/02/13 04:21:49;;;;;;;9.02;4.43;;;;;;;-0.24;94.64;101545.47;5052702;28;20499;-53
2022/02/13 04:24:20;;;;;;;8.15;4.18;;;;;;;-0.18;94.20;101529.88;5052496;28;20575;-52
2022/02/13 04:26:48;;;;;;;9.00;4.13;;;;;;;-0.18;93.87;101522.13;5048446;28;20067;-52
2022/02/13 04:29:16;;;;;;;10.32;4.78;;;;;;;-0.12;93.51;101528.97;5050409;28;20555;-55
2022/02/13 04:31:44;;;;;;;10.13;5.10;;;;;;;-0.14;93.71;101520.38;5051060;28;20511;-56
2022/02/13 04:34:12;;;;;;;12.95;4.45;;;;;;;-0.12;93.53;101519.50;5048591;28;20083;-54
2022/02/13 04:36:40;;;;;;;9.70;4.57;;;;;;;-0.11;93.40;101510.00;5051218;28;20126;-53
2022/02/13 04:39:10;;;;;;;11.25;4.32;;;;;;;-0.06;92.70;101503.06;5052514;28;21044;-53
2022/02/13 04:41:40;;;;;;;13.77;4.90;;;;;;;-0.09;93.00;101495.34;5052000;28;20053;-52
2022/02/13 04:44:08;;;;;;;10.25;4.65;;;;;;;-0.08;92.82;101492.72;5052052;28;20115;-54
2022/02/13 04:46:36;;;;;;;9.73;4.20;;;;;;;-0.08;92.98;101495.31;5052043;28;20048;-55
2022/02/13 04:49:04;;;;;;;10.90;4.68;;;;;;;-0.03;92.57;101490.97;5048547;28;20045;-57
2022/02/13 04:51:32;;;;;;;10.63;4.45;;;;;;;-0.05;92.52;101484.09;5048268;28;20148;-44
2022/02/13 04:54:01;;;;;;;8.88;4.22;;;;;;;-0.01;92.25;101484.03;5049386;28;20099;-46
2022/02/13 04:56:29;;;;;;;9.75;4.70;;;;;;;0.02;92.06;101480.56;5047429;28;20049;-49
2022/02/13 04:58:58;;;;;;;10.98;4.25;;;;;;;0.03;91.96;101479.69;5048968;28;20047;-46
2022/02/13 05:01:26;;;;;;;10.73;4.50;;;;;;;-0.01;91.97;101480.59;5051627;28;20071;-44
2022/02/13 05:03:56;;;;;;;9.43;4.07;;;;;;;-0.03;92.09;101483.19;5051883;28;20056;-46
2022/02/13 05:06:24;;;;;;;10.05;4.82;;;;;;;-0.06;92.48;101472.88;5051922;28;20056;-44
2022/02/13 05:08:53;;;;;;;10.80;4.68;;;;;;;-0.02;92.29;101476.28;5051965;28;20041;-44
2022/02/13 05:11:21;;;;;;;13.43;5.60;;;;;;;-0.10;92.58;101478.94;5052073;28;20045;-44
2022/02/13 05:13:50;;;;;;;14.13;4.53;;;;;;;-0.12;92.86;101470.38;5052225;28;20057;-47
2022/02/13 05:16:19;;;;;;;10.68;4.38;;;;;;;-0.09;92.75;101475.50;5052188;28;20080;-46
2022/02/13 05:18:47;;;;;;;9.32;4.07;;;;;;;-0.10;93.20;101478.94;5048026;28;20383;-44
2022/02/13 05:21:15;;;;;;;10.07;4.75;;;;;;;-0.09;93.25;101478.06;5051661;28;20392;-46
2022/02/13 05:23:43;;;;;;;10.18;4.80;;;;;;;-0.13;93.36;101491.06;5056264;28;20123;-45
2022/02/13 05:26:14;;;;;;;12.52;4.68;;;;;;;-0.14;93.48;101485.03;5055802;28;20098;-43
2022/02/13 05:28:42;;;;;;;10.27;5.22;;;;;;;-0.09;93.52;101490.16;5055970;28;20080;-45
2022/02/13 05:31:10;;;;;;;15.85;4.82;;;;;;;-0.14;93.77;101481.59;5055631;28;20048;-43
2022/02/13 05:33:39;;;;;;;11.07;4.68;;;;;;;-0.04;93.17;101478.03;5056025;28;20140;-45
2022/02/13 05:36:08;;;;;;;10.60;5.53;;;;;;;-0.10;93.25;101471.19;5055719;28;20049;-47
2022/02/13 05:38:36;;;;;;;9.85;4.72;;;;;;;-0.09;93.41;101477.25;5055468;28;20045;-44
2022/02/13 05:41:04;;;;;;;10.82;5.22;;;;;;;-0.09;93.44;101464.31;5055509;28;20075;-44
2022/02/13 05:43:32;;;;;;;10.73;4.40;;;;;;;-0.12;93.47;101464.31;5055436;28;20099;-44
2022/02/13 05:46:00;;;;;;;10.65;4.38;;;;;;;-0.11;93.46;101459.16;5055531;28;20064;-55
2022/02/13 05:48:29;;;;;;;9.30;4.20;;;;;;;-0.03;93.26;101461.63;5055408;28;20120;-55
2022/02/13 05:50:59;;;;;;;9.20;4.22;;;;;;;-0.08;92.93;101450.47;5055176;28;20036;-53
2022/02/13 05:53:27;;;;;;;9.40;4.72;;;;;;;-0.10;93.16;101452.25;5055287;28;20040;-55
2022/02/13 05:55:55;;;;;;;9.13;4.68;;;;;;;-0.11;93.43;101445.34;5055166;28;20075;-54
2022/02/13 05:58:23;;;;;;;12.25;5.22;;;;;;;-0.09;93.55;101433.28;5055473;28;20554;-55
2022/02/13 06:00:51;;;;;;;10.57;4.05;;;;;;;-0.12;93.34;101444.50;5055254;28;20057;-54
2022/02/13 06:03:19;;;;;;;9.15;4.18;;;;;;;-0.12;93.36;101444.50;5055123;28;20049;-54
2022/02/13 06:05:47;;;;;;;10.45;4.50;;;;;;;-0.14;93.38;101445.38;5052535;28;20053;-55
2022/02/13 06:08:17;;;;;;;11.07;4.90;;;;;;;-0.15;93.12;101436.78;5051300;28;20064;-52
2022/02/13 06:10:45;;;;;;;11.02;4.45;;;;;;;-0.13;93.08;101440.19;5053807;28;20068;-55
2022/02/13 06:13:13;;;;;;;10.35;5.03;;;;;;;-0.14;93.11;101429.88;5054582;28;20127;-53
2022/02/13 06:15:41;;;;;;;10.93;4.38;;;;;;;-0.09;93.32;101428.09;5054500;28;20045;-55
2022/02/13 06:18:09;;;;;;;8.75;4.07;;;;;;;-0.05;92.95;101422.03;5054838;28;20048;-53
2022/02/13 06:20:40;;;;;;;10.68;4.30;;;;;;;-0.08;93.08;101420.31;5054754;28;20131;-54
2022/02/13 06:23:08;;;;;;;13.60;4.78;;;;;;;-0.13;93.58;101422.09;5053606;28;20059;-55
2022/02/13 06:25:38;;;;;;;11.57;4.78;;;;;;;-0.19;93.65;101411.84;5054788;28;20052;-55
2022/02/13 06:28:07;;;;;;;9.60;4.20;;;;;;;-0.20;94.04;101408.38;5054632;28;20598;-53
2022/02/13 06:30:35;;;;;;;11.75;5.05;;;;;;;-0.25;94.14;101409.31;5053841;28;20503;-50
2022/02/13 06:33:03;;;;;;;8.60;4.88;;;;;;;-0.22;94.14;101410.13;5053944;28;20098;-50
2022/02/13 06:35:33;;;;;;;13.60;5.07;;;;;;;-0.25;94.12;101399.81;5050692;28;20052;-54
2022/02/13 06:38:02;;;;;;;9.80;4.15;;;;;;;-0.25;94.34;101392.06;5050468;28;20546;-54
2022/02/13 06:40:30;;;;;;;8.48;4.18;;;;;;;-0.22;94.10;101389.47;5054202;28;20041;-52
2022/02/13 06:43:00;;;;;;;12.40;4.75;;;;;;;-0.27;94.45;101387.78;5054510;28;20053;-54
2022/02/13 06:45:28;;;;;;;9.77;5.00;;;;;;;-0.31;94.96;101386.97;5054656;28;20066;-53
2022/02/13 06:47:56;;;;;;;10.18;5.07;;;;;;;-0.29;94.83;101384.38;5054631;28;20049;-55
2022/02/13 06:50:24;;;;;;;9.77;4.47;;;;;;;-0.29;94.83;101387.78;5054092;28;20033;-52
2022/02/13 06:52:53;;;;;;;9.32;4.57;;;;;;;-0.32;95.36;101393.00;5049776;28;20049;-55
2022/02/13 06:55:22;;;;;;;10.75;5.13;;;;;;;-0.38;95.48;101387.91;5051601;28;20049;-53
2022/02/13 06:57:51;;;;;;;11.25;4.40;;;;;;;-0.38;95.71;101393.09;5054084;28;20048;-53
2022/02/13 07:00:21;;;;;;;9.98;4.90;;;;;;;-0.35;95.65;101387.88;5054156;28;20428;-55
2022/02/13 07:02:49;;;;;;;10.68;4.88;;;;;;;-0.36;95.56;101386.16;5053962;28;20044;-53
2022/02/13 07:05:17;;;;;;;11.07;5.20;;;;;;;-0.30;95.67;101393.84;5054027;28;20516;-52
2022/02/13 07:07:45;;;;;;;10.02;4.40;;;;;;;-0.25;95.08;101392.06;5053871;28;20499;-51
2022/02/13 07:10:14;;;;;;;10.55;4.88;;;;;;;-0.25;95.15;101394.63;5053836;28;20487;-52
2022/02/13 07:12:42;;;;;;;11.23;4.60;;;;;;;-0.26;95.02;101398.13;5053832;28;20049;-54
2022/02/13 07:15:11;;;;;;;9.07;4.57;;;;;;;-0.24;95.33;101385.19;5053833;28;20095;-53
2022/02/13 07:17:45;;;;;;;11.02;5.03;;;;;;;-0.18;95.42;101385.97;5053988;28;20171;-55
2022/02/13 07:20:14;;;;;;;8.52;4.40;;;;;;;-0.17;95.14;101386.81;5053528;28;20049;-54
2022/02/13 07:22:42;;;;;;;11.98;5.15;;;;;;;-0.15;95.01;101374.72;5052927;28;20053;-55
2022/02/13 07:25:10;;;;;;;10.55;5.05;;;;;;;-0.09;94.77;101371.22;5049987;28;20049;-55
2022/02/13 07:27:39;;;;;;;12.00;4.68;;;;;;;-0.04;94.87;101377.16;5049554;28;20047;-55
2022/02/13 07:30:13;;;;;;;11.30;4.85;;;;;;;-0.02;95.00;101376.25;5052690;28;20094;-54
2022/02/13 07:32:42;;;;;;;10.10;4.43;;;;;;;0.06;94.97;101383.09;5053211;28;20044;-53
2022/02/13 07:35:12;;;;;;;12.02;4.95;;;;;;;0.10;94.87;101377.84;5053435;28;20045;-54
2022/02/13 07:37:41;;;;;;;10.05;4.50;;;;;;;0.20;94.11;101380.31;5053470;28;20563;-53
2022/02/13 07:40:13;;;;;;;9.05;4.65;;;;;;;0.35;93.54;101380.09;5053240;28;20095;-55
2022/02/13 07:42:43;;;;;;;10.57;4.20;;;;;;;0.46;93.30;101380.81;5048618;28;20534;-54
2022/02/13 07:45:13;;;;;;;9.02;4.43;;;;;;;0.64;91.47;101379.69;5051011;28;20052;-53
2022/02/13 07:47:41;;;;;;;10.55;4.15;;;;;;;0.72;91.56;101379.56;5050790;28;20403;-52
2022/02/13 07:50:09;;;;;;;9.63;4.30;;;;;;;0.72;91.10;101369.19;5048917;28;20041;-55
2022/02/13 07:52:39;;;;;;;9.10;4.25;;;;;;;0.83;90.05;101369.03;5052106;28;20076;-54
2022/02/13 07:55:07;;;;;;;8.70;4.00;;;;;;;0.87;90.21;101365.50;5053244;28;20061;-55
2022/02/13 07:57:36;;;;;;;9.40;4.07;;;;;;;0.97;90.29;101367.06;5053219;28;20519;-55
2022/02/13 08:00:05;;;;;;;9.75;4.47;;;;;;;1.03;89.37;101355.75;5051528;28;20045;-46
2022/02/13 08:02:35;;;;;;;12.82;4.47;;;;;;;1.11;89.50;101363.41;5049583;28;20045;-46
2022/02/13 08:05:04;;;;;;;9.52;4.93;;;;;;;1.25;89.35;101363.16;5051611;28;20091;-48
2022/02/13 08:07:32;;;;;;;11.27;4.57;;;;;;;1.27;89.26;101366.53;5053180;28;20080;-46
2022/02/13 08:10:01;;;;;;;10.18;4.45;;;;;;;1.34;88.46;101363.00;5051268;28;20120;-43
2022/02/13 08:12:30;;;;;;;8.70;4.10;;;;;;;1.46;88.31;101354.09;5048891;28;20419;-43
2022/02/13 08:14:58;;;;;;;10.60;4.82;;;;;;;1.57;87.72;101347.00;5051322;28;20049;-46
2022/02/13 08:17:27;;;;;;;8.98;4.15;;;;;;;1.66;87.57;101345.94;5049266;28;20057;-45
2022/02/13 08:20:03;;;;;;;8.75;4.15;;;;;;;1.68;87.58;101349.38;5048406;28;20602;-46
2022/02/13 08:22:31;;;;;;;10.07;4.32;;;;;;;1.81;87.19;101347.38;5052634;28;20045;-45
2022/02/13 08:25:01;;;;;;;11.40;4.50;;;;;;;1.87;86.45;101347.25;5057389;28;20037;-45
2022/02/13 08:27:29;;;;;;;9.55;4.13;;;;;;;1.94;85.87;101340.22;5065266;28;20036;-45
2022/02/13 08:29:57;;;;;;;8.90;4.35;;;;;;;2.00;85.11;101345.25;5069833;28;20040;-43
2022/02/13 08:32:26;;;;;;;8.07;4.30;;;;;;;2.03;85.32;101347.78;5059254;28;20048;-44
2022/02/13 08:34:54;;;;;;;8.05;4.32;;;;;;;2.11;84.63;101345.88;5064068;28;20055;-44
2022/02/13 08:37:22;;;;;;;9.40;4.55;;;;;;;2.14;84.64;101340.63;5062767;28;20048;-45
2022/02/13 08:39:50;;;;;;;11.50;4.70;;;;;;;2.21;84.83;101336.16;5062543;28;20044;-46
2022/02/13 08:42:20;;;;;;;9.60;4.35;;;;;;;2.25;85.09;101339.53;5056350;28;20533;-45
2022/02/13 08:44:48;;;;;;;9.75;4.20;;;;;;;2.32;84.64;101317.75;5056164;28;20055;-54
2022/02/13 08:47:16;;;;;;;8.63;4.55;;;;;;;2.36;84.24;101327.16;5064051;28;20045;-55
2022/02/13 08:49:44;;;;;;;10.32;4.85;;;;;;;2.42;84.59;101329.59;5055355;28;20149;-54
2022/02/13 08:52:13;;;;;;;9.55;4.18;;;;;;;2.49;83.86;101314.75;5056927;28;20044;-55
2022/02/13 08:54:41;;;;;;;10.48;4.50;;;;;;;2.54;83.87;101320.69;5053567;28;20487;-55
2022/02/13 08:57:09;;;;;;;8.52;4.38;;;;;;;2.58;84.10;101313.66;5058498;28;20047;-53
2022/02/13 08:59:38;;;;;;;8.75;4.22;;;;;;;2.68;83.66;101307.34;5056899;28;20151;-55
2022/02/13 09:02:07;;;;;;;7.82;3.90;;;;;;;2.67;83.62;101306.50;5050926;28;20044;-55
2022/02/13 09:04:35;;;;;;;9.48;4.05;;;;;;;2.76;83.42;101299.38;5056632;28;20099;-52
2022/02/13 09:07:03;;;;;;;8.40;4.25;;;;;;;2.87;83.14;101297.34;5059424;28;20040;-54
2022/02/13 09:09:32;;;;;;;10.98;4.57;;;;;;;2.92;82.71;101299.81;5054569;28;20136;-51
2022/02/13 09:12:01;;;;;;;9.45;4.28;;;;;;;2.98;82.47;101291.88;5062162;28;20486;-55
2022/02/13 09:14:30;;;;;;;8.95;4.45;;;;;;;3.06;82.09;101282.13;5054109;28;20041;-54
2022/02/13 09:16:59;;;;;;;9.32;4.25;;;;;;;3.14;81.40;101293.19;5051332;28;20479;-55
2022/02/13 09:19:28;;;;;;;8.98;4.50;;;;;;;3.14;81.36;101282.78;5058964;28;20434;-56
2022/02/13 09:21:56;;;;;;;9.93;4.10;;;;;;;3.22;81.38;101279.97;5059646;28;20064;-55
2022/02/13 09:24:25;;;;;;;10.40;4.50;;;;;;;3.30;81.22;101278.03;5059869;28;20053;-55
2022/02/13 09:26:53;;;;;;;8.82;4.22;;;;;;;3.39;81.31;101274.28;5051999;28;20592;-55
2022/02/13 09:29:21;;;;;;;8.85;3.92;;;;;;;3.62;80.67;101280.59;5050614;28;20049;-54
2022/02/13 09:31:49;;;;;;;9.43;4.65;;;;;;;3.81;79.34;101268.75;5047790;28;20048;-55
2022/02/13 09:34:25;;;;;;;9.00;4.25;;;;;;;3.89;78.90;101266.75;5050180;28;20136;-52
2022/02/13 09:36:53;;;;;;;9.73;5.05;;;;;;;4.05;78.57;101267.16;5051324;28;20065;-54
2022/02/13 09:39:21;;;;;;;9.10;4.40;;;;;;;4.23;78.54;101257.91;5083626;28;20045;-55
2022/02/13 09:41:49;;;;;;;8.52;4.15;;;;;;;4.16;76.94;101253.78;5046606;28;20573;-54
2022/02/13 09:44:19;;;;;;;12.65;4.68;;;;;;;4.23;76.10;101244.88;5049530;28;20488;-55
2022/02/13 09:46:48;;;;;;;10.15;4.47;;;;;;;4.20;75.81;101251.97;5051658;28;20500;-54
2022/02/13 09:49:18;;;;;;;8.70;4.38;;;;;;;4.30;76.35;101229.91;5046996;28;20065;-55
2022/02/13 09:51:47;;;;;;;7.93;4.28;;;;;;;4.52;75.58;101235.25;5046881;28;20057;-53
2022/02/13 09:54:16;;;;;;;9.77;4.70;;;;;;;4.44;75.49;101239.88;5051636;28;20067;-55
2022/02/13 09:56:47;;;;;;;9.52;4.30;;;;;;;4.66;75.05;101244.34;5051603;28;20037;-55
2022/02/13 09:59:15;;;;;;;7.88;4.28;;;;;;;4.84;73.60;101240.25;5051632;28;20049;-57
2022/02/13 10:01:46;;;;;;;8.82;4.55;;;;;;;4.90;73.83;101243.50;5051392;28;20037;-55
2022/02/13 10:04:14;;;;;;;9.35;4.47;;;;;;;4.94;73.30;101223.41;5049986;28;20048;-57
2022/02/13 10:06:43;;;;;;;8.73;4.57;;;;;;;4.98;72.90;101219.78;5053286;28;20111;-47
2022/02/13 10:09:13;;;;;;;7.70;3.95;;;;;;;4.97;73.71;101212.03;5050226;28;20876;-56
2022/02/13 10:11:45;;;;;;;8.43;4.30;;;;;;;5.33;72.42;101207.22;5052617;28;20063;-44
2022/02/13 10:14:15;;;;;;;8.43;4.35;;;;;;;5.51;71.97;101204.84;5055031;28;20080;-49
2022/02/13 10:16:46;;;;;;;8.75;4.50;;;;;;;5.63;71.41;101199.16;5054849;28;20049;-57
2022/02/13 10:19:22;;;;;;;9.45;4.85;;;;;;;5.68;71.37;101197.19;5054861;28;20529;-47
2022/02/13 10:21:51;;;;;;;8.38;3.75;;;;;;;5.73;70.90;101204.84;5054840;28;20132;-56
2022/02/13 10:24:25;;;;;;;10.38;4.07;;;;;;;6.00;71.16;101202.06;5053664;28;20407;-49
2022/02/13 10:27:11;;;;;;;9.45;4.28;;;;;;;6.17;70.32;101209.25;5054505;28;20037;-55
2022/02/13 10:29:41;;;;;;;8.32;3.97;;;;;;;6.37;69.85;101190.13;5051047;28;20084;-43
2022/02/13 10:32:15;;;;;;;8.57;4.13;;;;;;;6.50;69.50;101196.53;5051164;28;20049;-56
2022/02/13 10:34:58;;;;;;;8.73;4.00;;;;;;;6.72;68.27;101182.53;5054747;28;20051;-57
2022/02/13 10:37:39;;;;;;;;;;;;;;;6.29;68.05;101176.53;5055009;28;20110;-45
2022/02/13 10:40:11;;;;;;;9.55;4.32;;;;;;;6.34;68.16;101174.56;5053076;28;19928;-56
2022/02/13 10:42:39;;;;;;;7.93;4.03;;;;;;;6.29;67.57;101174.78;5054248;28;20037;-44
2022/02/13 10:45:25;;;;;;;7.95;4.07;;;;;;;6.58;68.37;101177.91;5054358;28;20052;-56
2022/02/13 10:47:57;;;;;;;8.55;4.22;;;;;;;6.74;67.55;101165.03;5054377;28;20128;-49
2022/02/13 10:50:26;;;;;;;9.23;4.30;;;;;;;6.88;67.18;101175.72;5054441;28;20052;-56
2022/02/13 10:52:58;;;;;;;9.13;4.07;;;;;;;7.05;66.94;101161.91;5054274;28;20052;-46
2022/02/13 10:55:28;;;;;;;9.60;4.50;;;;;;;7.12;66.10;101167.69;5054260;28;20044;-50
2022/02/13 10:57:58;;;;;;;8.13;4.43;;;;;;;7.14;66.22;101163.22;5052978;28;20106;-45
2022/02/13 11:00:29;;;;;;;8.65;4.13;;;;;;;7.41;65.72;101166.34;5052720;28;20049;-45
2022/02/13 11:03:01;;;;;;;7.68;3.80;;;;;;;7.57;64.79;101163.84;5049411;28;20060;-43
2022/02/13 11:05:32;;;;;;;8.07;3.92;;;;;;;8.04;63.53;101164.25;5051571;28;20083;-54
2022/02/13 11:08:06;;;;;;;9.23;3.78;;;;;;;8.06;63.74;101162.41;5050501;28;20320;-56
2022/02/13 11:10:41;;;;;;;7.90;3.85;;;;;;;8.21;63.34;101163.44;5049512;28;20132;-56
2022/02/13 11:13:11;;;;;;;9.85;4.13;;;;;;;8.53;62.93;101155.72;5052645;28;20047;-56
2022/02/13 11:15:42;;;;;;;7.93;3.72;;;;;;;8.83;61.84;101148.03;5053934;28;20073;-55
2022/02/13 11:18:17;;;;;;;8.82;4.22;;;;;;;8.59;62.21;101143.16;5053214;28;20507;-57
2022/02/13 11:20:46;;;;;;;9.73;4.18;;;;;;;8.90;62.34;101124.94;5053781;28;20041;-45
2022/02/13 11:23:20;;;;;;;8.77;4.38;;;;;;;9.16;62.11;101120.06;5053678;28;20045;-46
2022/02/13 11:25:54;;;;;;;6.60;3.72;;;;;;;9.12;61.18;101111.50;5053896;28;20075;-56
2022/02/13 11:28:26;;;;;;;7.95;3.70;;;;;;;9.18;60.85;101110.34;5053619;28;20056;-55
2022/02/13 11:30:57;;;;;;;7.72;3.80;;;;;;;9.12;61.34;101103.63;5053473;28;20116;-55
2022/02/13 11:33:44;;;;;;;7.93;3.90;;;;;;;9.47;60.29;101100.81;5056172;28;20044;-46